createdAt,value
2022-11-13T00:01:58.471Z,17.63
2022-11-13T00:04:44.557Z,18.75
2022-11-13T00:07:30.834Z,21.20
2022-11-13T00:10:17.297Z,19.73
2022-11-13T00:13:03.522Z,18.25
2022-11-13T00:15:58.389Z,18.10
2022-11-13T00:18:44.937Z,18.95
2022-11-13T00:21:31.098Z,17.88
2022-11-13T00:24:17.398Z,21.05
2022-11-13T00:27:04.013Z,16.80
2022-11-13T00:29:50.332Z,16.20
2022-11-13T00:32:38.219Z,19.80
2022-11-13T00:35:24.624Z,17.65
2022-11-13T00:38:10.760Z,17.55
2022-11-13T00:40:57.216Z,21.88
2022-11-13T00:43:43.629Z,15.32
2022-11-13T00:46:30.356Z,18.38
2022-11-13T00:49:16.578Z,18.35
2022-11-13T00:52:03.791Z,18.55
2022-11-13T00:54:50.248Z,14.98
2022-11-13T00:57:36.347Z,17.05
2022-11-13T01:00:22.624Z,15.43
2022-11-13T01:03:09.363Z,15.57
2022-11-13T01:05:55.522Z,17.05
2022-11-13T01:08:41.780Z,16.98
2022-11-13T01:11:30.414Z,13.00
2022-11-13T01:14:16.409Z,11.77
2022-11-13T01:17:02.931Z,12.40
2022-11-13T01:19:49.255Z,16.25
2022-11-13T01:22:35.286Z,10.77
2022-11-13T01:25:21.487Z,11.65
2022-11-13T01:28:07.716Z,11.85
2022-11-13T01:30:54.068Z,15.07
2022-11-13T01:33:40.318Z,13.02
2022-11-13T01:36:29.034Z,14.15
2022-11-13T01:39:15.350Z,12.90
2022-11-13T01:42:01.748Z,14.07
2022-11-13T01:44:59.935Z,17.50
2022-11-13T01:47:46.533Z,8.15
2022-11-13T01:50:32.636Z,16.00
2022-11-13T01:53:19.655Z,16.08
2022-11-13T01:56:06.947Z,14.05
2022-11-13T01:59:02.981Z,14.45
2022-11-13T02:01:49.697Z,10.65
2022-11-13T02:04:36.900Z,12.45
2022-11-13T02:07:23.929Z,15.85
2022-11-13T02:10:09.904Z,9.05
2022-11-13T02:12:56.574Z,10.20
2022-11-13T02:15:43.995Z,12.27
2022-11-13T02:18:31.693Z,11.63
2022-11-13T02:21:51.025Z,9.90
2022-11-13T02:24:45.060Z,11.32
2022-11-13T02:27:41.343Z,13.43
2022-11-13T02:30:31.285Z,12.18
2022-11-13T02:33:30.066Z,11.00
2022-11-13T02:36:18.690Z,10.63
2022-11-13T02:39:08.663Z,10.80
2022-11-13T02:41:54.920Z,9.27
2022-11-13T02:44:41.244Z,12.82
2022-11-13T02:47:28.333Z,11.02
2022-11-13T02:50:15.144Z,11.55
2022-11-13T02:53:01.456Z,11.40
2022-11-13T02:55:47.555Z,12.85
2022-11-13T02:58:33.856Z,8.70
2022-11-13T03:01:20.543Z,8.55
2022-11-13T03:04:06.335Z,10.63
2022-11-13T03:06:52.512Z,11.35
2022-11-13T03:09:39.551Z,9.32
2022-11-13T03:12:25.765Z,11.30
2022-11-13T03:15:12.059Z,9.07
2022-11-13T03:18:02.387Z,11.45
2022-11-13T03:20:54.236Z,9.07
2022-11-13T03:23:42.152Z,9.27
2022-11-13T03:26:28.673Z,8.60
2022-11-13T03:29:15.566Z,8.88
2022-11-13T03:32:03.551Z,8.20
2022-11-13T03:34:49.589Z,11.75
2022-11-13T03:37:36.104Z,9.32
2022-11-13T03:40:22.567Z,12.43
2022-11-13T03:43:08.554Z,10.70
2022-11-13T03:45:54.690Z,9.10
2022-11-13T03:48:41.433Z,12.98
2022-11-13T03:51:27.844Z,13.07
2022-11-13T03:54:14.383Z,16.42
2022-11-13T03:57:00.465Z,12.68
2022-11-13T03:59:46.898Z,13.13
2022-11-13T04:02:33.312Z,11.88
2022-11-13T04:05:22.747Z,18.63
2022-11-13T04:08:09.743Z,14.98
2022-11-13T04:10:55.658Z,13.93
2022-11-13T04:13:41.692Z,14.70
2022-11-13T04:16:27.756Z,14.27
2022-11-13T04:19:13.987Z,19.15
2022-11-13T04:22:00.088Z,16.70
2022-11-13T04:24:46.022Z,13.02
2022-11-13T04:27:32.519Z,16.50
2022-11-13T04:30:19.304Z,12.02
2022-11-13T04:33:05.645Z,11.35
2022-11-13T04:35:51.987Z,11.50
2022-11-13T04:38:40.078Z,13.07
2022-11-13T04:41:44.813Z,11.07
2022-11-13T04:44:31.341Z,12.60
2022-11-13T04:47:17.548Z,11.70
2022-11-13T04:50:04.723Z,12.73
2022-11-13T04:52:51.087Z,11.65
2022-11-13T04:55:37.615Z,13.05
2022-11-13T04:58:23.667Z,12.65
2022-11-13T05:01:09.790Z,11.77
2022-11-13T05:03:56.287Z,12.98
2022-11-13T05:06:42.818Z,10.20
2022-11-13T05:09:28.886Z,10.20
2022-11-13T05:12:14.989Z,11.93
2022-11-13T05:15:01.458Z,13.35
2022-11-13T05:17:49.829Z,13.40
2022-11-13T05:20:36.192Z,10.38
2022-11-13T05:23:22.415Z,9.88
2022-11-13T05:26:11.667Z,11.63
2022-11-13T05:29:01.528Z,15.38
2022-11-13T05:31:47.653Z,11.73
2022-11-13T05:34:33.969Z,8.45
2022-11-13T05:37:20.153Z,11.32
2022-11-13T05:40:06.970Z,11.10
2022-11-13T05:42:56.768Z,8.90
2022-11-13T05:45:43.084Z,10.68
2022-11-13T05:48:30.047Z,10.60
2022-11-13T05:51:19.200Z,10.38
2022-11-13T05:54:06.529Z,9.27
2022-11-13T05:56:53.030Z,11.88
2022-11-13T05:59:39.061Z,10.32
2022-11-13T06:02:25.478Z,10.98
2022-11-13T06:05:11.850Z,10.50
2022-11-13T06:07:57.873Z,12.18
2022-11-13T06:10:43.729Z,10.65
2022-11-13T06:13:30.437Z,10.35
2022-11-13T06:16:21.754Z,10.65
2022-11-13T06:19:10.502Z,12.00
2022-11-13T06:21:56.719Z,10.52
2022-11-13T06:24:43.485Z,14.57
2022-11-13T06:27:29.856Z,8.63
2022-11-13T06:30:16.072Z,15.05
2022-11-13T06:33:02.176Z,10.10
2022-11-13T06:35:48.207Z,11.18
2022-11-13T06:38:36.444Z,10.85
2022-11-13T06:41:26.330Z,8.98
2022-11-13T06:44:12.789Z,10.60
2022-11-13T06:46:58.900Z,11.15
2022-11-13T06:49:44.856Z,7.15
2022-11-13T06:52:31.057Z,13.05
2022-11-13T06:55:16.996Z,7.35
2022-11-13T06:58:03.444Z,7.50
2022-11-13T07:00:50.227Z,7.30
2022-11-13T07:03:36.925Z,8.27
2022-11-13T07:06:24.634Z,9.32
2022-11-13T07:09:10.582Z,5.22
2022-11-13T07:11:56.891Z,5.90
2022-11-13T07:14:42.915Z,4.03
2022-11-13T07:17:29.338Z,6.15
2022-11-13T07:20:16.054Z,7.30
2022-11-13T07:23:04.145Z,5.13
2022-11-13T07:25:52.656Z,8.40
2022-11-13T07:28:39.195Z,6.75
2022-11-13T07:31:25.362Z,6.72
2022-11-13T07:34:11.722Z,7.22
2022-11-13T07:36:57.832Z,7.85
2022-11-13T07:39:43.878Z,6.40
2022-11-13T07:42:30.629Z,4.50
2022-11-13T07:45:16.980Z,3.72
2022-11-13T07:48:04.403Z,6.55
2022-11-13T07:50:51.678Z,4.45
2022-11-13T07:53:39.167Z,5.07
2022-11-13T07:56:25.688Z,5.20
2022-11-13T07:59:12.135Z,7.93
2022-11-13T08:01:58.567Z,5.30
2022-11-13T08:04:44.775Z,5.20
2022-11-13T08:07:31.261Z,6.85
2022-11-13T08:10:19.434Z,4.35
2022-11-13T08:13:08.016Z,3.75
2022-11-13T08:15:54.430Z,5.43
2022-11-13T08:18:40.367Z,3.60
2022-11-13T08:21:26.402Z,4.20
2022-11-13T08:24:12.517Z,4.47
2022-11-13T08:26:58.703Z,4.15
2022-11-13T08:29:45.117Z,5.50
2022-11-13T08:32:31.334Z,4.30
2022-11-13T08:35:19.686Z,5.53
2022-11-13T08:38:09.492Z,4.18
2022-11-13T08:41:02.084Z,9.02
2022-11-13T08:43:50.659Z,4.68
2022-11-13T08:46:36.581Z,5.32
2022-11-13T08:49:22.616Z,4.28
2022-11-13T08:52:08.655Z,3.53
2022-11-13T08:54:55.091Z,5.47
2022-11-13T08:57:41.419Z,5.35
2022-11-13T09:00:29.443Z,4.78
2022-11-13T09:03:15.667Z,4.68
2022-11-13T09:06:04.805Z,5.43
2022-11-13T09:08:51.021Z,7.00
2022-11-13T09:11:37.128Z,5.35
2022-11-13T09:14:25.178Z,7.28
2022-11-13T09:17:11.493Z,4.07
2022-11-13T09:20:03.542Z,6.72
2022-11-13T09:22:56.234Z,5.07
2022-11-13T09:25:42.222Z,3.72
2022-11-13T09:28:28.358Z,4.00
2022-11-13T09:31:14.726Z,2.58
2022-11-13T09:34:01.071Z,5.03
2022-11-13T09:36:47.151Z,4.78
2022-11-13T09:39:33.218Z,2.60
2022-11-13T09:42:24.049Z,4.22
2022-11-13T09:45:15.134Z,6.00
2022-11-13T09:48:35.598Z,6.30
2022-11-13T09:51:33.338Z,2.65
2022-11-13T09:54:20.688Z,4.22
2022-11-13T09:57:24.558Z,3.38
2022-11-13T10:00:19.348Z,6.57
2022-11-13T10:06:44.412Z,3.13
2022-11-13T10:09:59.723Z,5.22
2022-11-13T10:12:50.173Z,3.92
2022-11-13T10:15:38.617Z,6.00
2022-11-13T10:18:30.693Z,7.70
2022-11-13T10:21:39.064Z,3.08
2022-11-13T10:24:40.861Z,3.13
2022-11-13T10:27:26.959Z,2.78
2022-11-13T10:30:16.065Z,4.75
2022-11-13T10:33:08.453Z,4.32
2022-11-13T10:36:16.745Z,5.53
2022-11-13T10:39:07.827Z,4.43
2022-11-13T10:41:55.353Z,5.97
2022-11-13T10:44:41.569Z,3.22
2022-11-13T10:48:01.945Z,5.68
2022-11-13T10:50:38.548Z,9.02
2022-11-13T10:53:26.926Z,5.15
2022-11-13T10:56:26.838Z,5.20
2022-11-13T10:59:18.807Z,7.20
2022-11-13T11:02:18.564Z,5.40
2022-11-13T11:05:18.735Z,6.82
2022-11-13T11:08:10.574Z,5.47
2022-11-13T11:11:35.708Z,7.57
2022-11-13T11:14:34.310Z,4.90
2022-11-13T11:17:23.464Z,6.28
2022-11-13T11:20:34.171Z,5.53
2022-11-13T11:23:49.579Z,7.70
2022-11-13T11:26:46.843Z,6.63
2022-11-13T11:29:42.526Z,6.72
2022-11-13T11:33:00.712Z,4.07
2022-11-13T11:36:28.433Z,4.55
2022-11-13T11:39:38.712Z,4.95
2022-11-13T11:42:45.721Z,4.05
2022-11-13T11:45:37.582Z,6.82
2022-11-13T11:48:30.117Z,4.70
2022-11-13T11:51:36.107Z,4.82
2022-11-13T11:54:46.689Z,5.07
2022-11-13T11:57:54.646Z,4.40
2022-11-13T12:00:56.827Z,5.05
2022-11-13T12:04:11.831Z,4.70
2022-11-13T12:07:25.205Z,4.35
2022-11-13T12:10:37.579Z,4.63
2022-11-13T12:13:36.672Z,5.72
2022-11-13T12:16:32.504Z,4.05
2022-11-13T12:19:54.579Z,4.10
2022-11-13T12:22:52.356Z,4.95
2022-11-13T12:25:51.340Z,4.07
2022-11-13T12:28:51.075Z,5.32
2022-11-13T12:31:58.917Z,4.35
2022-11-13T12:34:50.285Z,4.53
2022-11-13T12:37:41.521Z,4.13
2022-11-13T12:40:49.048Z,7.43
2022-11-13T12:44:17.405Z,5.72
2022-11-13T12:47:04.142Z,7.38
2022-11-13T12:50:00.952Z,7.93
2022-11-13T12:53:02.196Z,8.05
2022-11-13T12:56:00.598Z,7.00
2022-11-13T12:59:31.300Z,8.30
2022-11-13T13:02:52.384Z,11.55
2022-11-13T13:06:05.151Z,9.10
2022-11-13T13:09:13.821Z,18.17
2022-11-13T13:12:13.494Z,9.35
2022-11-13T13:15:21.633Z,10.13
2022-11-13T13:18:16.891Z,13.43
2022-11-13T13:21:11.305Z,14.45
2022-11-13T13:24:08.221Z,9.13
2022-11-13T13:26:54.795Z,9.63
2022-11-13T13:29:41.609Z,8.85
2022-11-13T13:32:52.179Z,12.80
2022-11-13T13:35:54.887Z,12.10
2022-11-13T13:38:52.592Z,10.60
2022-11-13T13:41:57.194Z,16.15
2022-11-13T13:45:01.028Z,13.98
2022-11-13T13:47:53.676Z,13.80
2022-11-13T13:50:45.069Z,15.68
2022-11-13T13:53:34.824Z,17.08
2022-11-13T13:56:21.893Z,22.15
2022-11-13T13:59:26.489Z,14.45
2022-11-13T14:02:17.254Z,15.73
2022-11-13T14:05:17.706Z,14.35
2022-11-13T14:08:07.668Z,17.58
2022-11-13T14:10:53.747Z,25.30
2022-11-13T14:13:42.096Z,25.65
2022-11-13T14:16:27.936Z,30.88
2022-11-13T14:19:14.439Z,34.63
2022-11-13T14:22:04.209Z,33.25
2022-11-13T14:24:58.931Z,17.30
2022-11-13T14:27:45.212Z,19.48
2022-11-13T14:30:31.872Z,29.80
2022-11-13T14:33:29.821Z,17.02
2022-11-13T14:36:32.269Z,21.08
2022-11-13T14:39:24.667Z,24.15
2022-11-13T14:42:26.116Z,26.90
2022-11-13T14:45:16.840Z,45.78
2022-11-13T14:48:20.876Z,38.80
2022-11-13T14:51:22.133Z,28.17
2022-11-13T14:55:08.070Z,26.02
2022-11-13T14:57:50.495Z,40.00
2022-11-13T15:00:38.381Z,29.13
2022-11-13T15:03:25.322Z,31.65
2022-11-13T15:06:25.226Z,24.63
2022-11-13T15:09:15.267Z,22.25
2022-11-13T15:12:01.101Z,22.33
2022-11-13T15:14:47.782Z,23.15
2022-11-13T15:17:33.930Z,20.92
2022-11-13T15:20:25.946Z,18.35
2022-11-13T15:23:16.325Z,15.98
2022-11-13T15:26:02.285Z,22.30
2022-11-13T15:28:48.354Z,20.70
2022-11-13T15:31:37.995Z,21.98
2022-11-13T15:34:24.297Z,23.63
2022-11-13T15:37:15.084Z,23.08
2022-11-13T15:40:00.942Z,26.63
2022-11-13T15:42:47.150Z,25.55
2022-11-13T15:45:33.332Z,26.70
2022-11-13T15:48:19.587Z,23.90
2022-11-13T15:51:12.808Z,18.35
2022-11-13T15:54:07.975Z,19.23
2022-11-13T15:56:54.254Z,21.20
2022-11-13T15:59:40.775Z,23.65
2022-11-13T16:02:27.557Z,19.23
2022-11-13T16:05:13.925Z,19.13
2022-11-13T16:08:00.310Z,21.95
2022-11-13T16:10:46.300Z,18.48
2022-11-13T16:13:32.488Z,24.30
2022-11-13T16:16:30.151Z,23.92
2022-11-13T16:19:23.418Z,19.42
2022-11-13T16:22:26.854Z,20.10
2022-11-13T16:25:22.668Z,17.85
2022-11-13T16:28:16.418Z,19.40
2022-11-13T16:31:02.584Z,21.58
2022-11-13T16:33:49.353Z,21.20
2022-11-13T16:36:35.760Z,27.63
2022-11-13T16:39:21.835Z,24.75
2022-11-13T16:42:07.789Z,27.83
2022-11-13T16:44:53.797Z,21.60
2022-11-13T16:47:40.105Z,21.17
2022-11-13T16:50:31.110Z,22.02
2022-11-13T16:53:17.438Z,23.05
2022-11-13T16:56:17.659Z,28.48
2022-11-13T16:59:03.986Z,24.85
2022-11-13T17:01:54.732Z,21.70
2022-11-13T17:04:40.974Z,23.83
2022-11-13T17:07:27.543Z,23.33
2022-11-13T17:10:32.632Z,29.75
2022-11-13T17:13:19.361Z,28.83
2022-11-13T17:16:05.621Z,27.85
2022-11-13T17:18:53.508Z,19.48
2022-11-13T17:21:44.006Z,20.73
2022-11-13T17:24:30.907Z,24.17
2022-11-13T17:27:17.951Z,20.77
2022-11-13T17:30:04.455Z,20.80
2022-11-13T17:32:50.389Z,24.67
2022-11-13T17:35:36.311Z,20.92
2022-11-13T17:38:22.341Z,23.67
2022-11-13T17:41:13.056Z,27.15
2022-11-13T17:44:01.537Z,24.63
2022-11-13T17:46:48.261Z,19.83
2022-11-13T17:49:34.460Z,14.60
2022-11-13T17:52:20.821Z,21.75
2022-11-13T17:55:07.818Z,21.00
2022-11-13T17:57:53.970Z,20.60
2022-11-13T18:00:40.179Z,22.77
2022-11-13T18:03:26.654Z,26.63
2022-11-13T18:06:18.405Z,39.05
2022-11-13T18:09:06.531Z,23.27
2022-11-13T18:11:52.597Z,24.40
2022-11-13T18:14:38.900Z,24.02
2022-11-13T18:17:25.193Z,21.77
2022-11-13T18:20:11.197Z,26.05
2022-11-13T18:22:57.639Z,34.67
2022-11-13T18:25:44.007Z,25.15
2022-11-13T18:28:30.091Z,18.90
2022-11-13T18:31:19.219Z,23.35
2022-11-13T18:34:06.959Z,22.08
2022-11-13T18:36:52.998Z,23.60
2022-11-13T18:39:39.274Z,29.45
2022-11-13T18:42:25.738Z,30.73
2022-11-13T18:45:12.014Z,24.80
2022-11-13T18:47:58.029Z,22.35
2022-11-13T18:50:56.105Z,20.90
2022-11-13T18:53:48.533Z,24.52
2022-11-13T18:56:34.608Z,26.52
2022-11-13T18:59:20.865Z,19.80
2022-11-13T19:02:07.163Z,24.52
2022-11-13T19:04:54.194Z,21.58
2022-11-13T19:07:40.545Z,23.52
2022-11-13T19:10:27.575Z,24.67
2022-11-13T19:13:14.009Z,23.73
2022-11-13T19:16:08.950Z,23.95
2022-11-13T19:18:58.743Z,25.92
2022-11-13T19:21:45.405Z,33.25
2022-11-13T19:24:31.611Z,23.67
2022-11-13T19:27:17.539Z,25.50
2022-11-13T19:30:04.879Z,23.67
2022-11-13T19:32:51.189Z,36.35
2022-11-13T19:35:40.092Z,41.88
2022-11-13T19:38:27.872Z,32.08
2022-11-13T19:41:14.724Z,49.17
2022-11-13T19:44:01.226Z,37.20
2022-11-13T19:46:48.188Z,33.60
2022-11-13T19:49:35.451Z,30.15
2022-11-13T19:52:21.746Z,27.42
2022-11-13T19:55:08.403Z,27.02
2022-11-13T19:57:54.723Z,22.30
2022-11-13T20:00:41.230Z,24.92
2022-11-13T20:03:27.598Z,28.02
2022-11-13T20:06:15.570Z,26.58
2022-11-13T20:09:02.818Z,29.38
2022-11-13T20:11:49.155Z,36.28
2022-11-13T20:14:38.487Z,24.95
2022-11-13T20:17:25.010Z,31.88
2022-11-13T20:20:11.648Z,27.25
2022-11-13T20:22:57.846Z,26.23
2022-11-13T20:25:52.272Z,23.83
2022-11-13T20:28:38.532Z,22.20
2022-11-13T20:31:26.020Z,20.20
2022-11-13T20:34:12.333Z,23.38
2022-11-13T20:36:58.545Z,22.33
2022-11-13T20:39:44.397Z,19.27
2022-11-13T20:42:30.526Z,23.73
2022-11-13T20:45:17.026Z,24.15
2022-11-13T20:48:03.250Z,22.45
2022-11-13T20:50:49.554Z,22.40
2022-11-13T20:53:35.681Z,21.23
2022-11-13T20:56:24.302Z,27.77
2022-11-13T20:59:10.919Z,36.47
2022-11-13T21:01:57.702Z,29.17
2022-11-13T21:04:43.725Z,32.72
2022-11-13T21:07:29.795Z,33.42
2022-11-13T21:10:16.108Z,35.80
2022-11-13T21:13:02.277Z,36.35
2022-11-13T21:15:48.866Z,35.53
2022-11-13T21:18:36.134Z,27.55
2022-11-13T21:21:26.490Z,31.00
2022-11-13T21:24:12.733Z,27.85
2022-11-13T21:26:59.255Z,28.23
2022-11-13T21:29:47.514Z,22.45
2022-11-13T21:32:33.842Z,33.88
2022-11-13T21:35:22.636Z,31.05
2022-11-13T21:38:09.450Z,35.30
2022-11-13T21:41:21.612Z,35.50
2022-11-13T21:44:10.693Z,33.97
2022-11-13T21:46:56.625Z,27.95
2022-11-13T21:49:42.953Z,25.67
2022-11-13T21:52:29.832Z,29.73
2022-11-13T21:55:16.416Z,28.17
2022-11-13T21:58:02.320Z,22.48
2022-11-13T22:00:48.745Z,20.38
2022-11-13T22:03:34.882Z,21.88
2022-11-13T22:06:22.831Z,23.83
2022-11-13T22:09:17.852Z,24.35
2022-11-13T22:12:04.114Z,21.52
2022-11-13T22:14:56.145Z,17.60
2022-11-13T22:17:42.717Z,23.10
2022-11-13T22:20:28.642Z,25.95
2022-11-13T22:23:17.470Z,21.60
2022-11-13T22:26:08.632Z,20.95
2022-11-13T22:28:55.784Z,29.90
2022-11-13T22:31:43.116Z,20.75
2022-11-13T22:34:29.104Z,20.52
2022-11-13T22:37:15.447Z,17.67
2022-11-13T22:40:01.587Z,18.00
2022-11-13T22:42:47.394Z,22.40
2022-11-13T22:45:34.212Z,21.38
2022-11-13T22:48:20.502Z,21.67
2022-11-13T22:51:23.976Z,25.25
2022-11-13T22:54:11.849Z,15.65
2022-11-13T22:57:01.424Z,16.23
2022-11-13T22:59:47.325Z,22.13
2022-11-13T23:02:33.539Z,24.27
2022-11-13T23:05:19.445Z,17.92
2022-11-13T23:08:05.803Z,18.73
2022-11-13T23:10:53.952Z,16.50
2022-11-13T23:13:50.439Z,18.40
2022-11-13T23:16:36.758Z,16.27
2022-11-13T23:19:22.705Z,17.80
2022-11-13T23:22:09.195Z,14.68
2022-11-13T23:24:56.522Z,18.35
2022-11-13T23:27:42.561Z,16.77
2022-11-13T23:30:29.309Z,17.23
2022-11-13T23:33:16.062Z,15.50
2022-11-13T23:36:02.652Z,15.50
2022-11-13T23:38:48.825Z,17.70
2022-11-13T23:41:35.355Z,13.73
2022-11-13T23:44:21.718Z,15.95
2022-11-13T23:47:08.169Z,15.75
2022-11-13T23:49:54.173Z,10.90
2022-11-13T23:52:40.157Z,14.80
2022-11-13T23:55:26.560Z,17.30
2022-11-13T23:58:16.682Z,12.77
